Sal/Amílcar Cabral International Airport

Airport
ICAO code: 
GVAC
IATA Code: 
SID
Summary
ICAO Region: 
AFI
Territory: 
Location: 
Espargos, Sal Island, Ilhas de Barlavento
Serving: 
Espargos
Elevation: 
177 ft
Coordinates: 
Aerial View: 
16° 44' 30" N, 22° 56' 54" W
Metar
Observation
GVAC 010600Z 05016KT 8000 FEW014 BKN200 21/14 Q1014 NOSIG
Station
Sal
Date/Time
2021-12-01 06:00:00
Wind direction
50°
Wind speed
16 kts
Lowest cloud amount
few clouds
Temperature
21°C
Dew point
14°C
Humidity
64%
QNH
1014 hPa
Weather condition
n/a

Description

International airport serving Sal, Cape Verde islands.

Climatology

Hot, semi-arid/Steppe climate (Köppen climate classification BSh) - hot, sometimes extremely hot summers and mild to warm winters, with low annual precipitation.

Runways

Designator Length Width Surface Rops
7/25 1500 45 ASP Yes/Yes
1/19 3272 45 ASP Yes/Yes
Airport map: 
Aerial View: 

SKYbrary Partners:

Safety knowledge contributed by: